Guildford, United Kingdom

2:15 PM GMT on February 10, 2016 (GMT +0000)
Henley Fort | | Change Station
CLOSE
Current Station
Personal Weather Station
Location: Guildford,
Elevation: 423 ft
Nearby Weather Stations

Elev 423 ft 51.23 °N, 0.60 °W | Updated 19 seconds ago

Mostly Cloudy
Mostly Cloudy
45.7 °F
Feels Like 46 °F
N
1.8
Wind Variable Wind from SE
Gusts 6.9 mph

Today
High -- | Low -- °F
--% Chance of Precip.
Yesterday
High -- | Low -- °F
Precip. -- in
Pressure 29.47 in
Visibility 6.2 miles
Clouds Mostly Cloudy 2000 ft
Windchill 46 °F
Dew Point 36 °F
Humidity 69%
Rainfall 0.00 in
Snow Depth Not available.
7:25 AM 5:07 PM
Waxing Crescent, 5% visible
METAR EGLF 101350Z 29007KT 9999 BKN020 07/03 Q0998
Pressure 29.47 in
Visibility 6.2 miles
Clouds Mostly Cloudy 2000 ft
Windchill 46 °F
Dew Point 36 °F
Humidity 69%
Rainfall 0.00 in
Snow Depth Not available.
7:25 AM 5:07 PM
Waxing Crescent, 5% visible
METAR EGLF 101350Z 29007KT 9999 BKN020 07/03 Q0998

10-Day Weather Forecast

Almanac

Astronomy

Feb. 10, 2016 Rise Set
Actual Time
Civil Twilight
Nautical Twilight
Astronomical Twilight
Moon
Length of Visible Light
Length of Day
Tomorrow will be .
, % of the Moon is Illuminated

Today's Extremes

Country Highs Country Lows

Community

WunderPhotos

Upload Photos

1,891,850 photos uploaded!

WunderBlog® & News

Nearby

Air Quality

  Air Quality AQ Index Pollutant
Not available.

Snow Depth

Station Depth Elevation

Earthquake Activity

City Distance Mag. Time & Date
Minimum magnitude displayed is 2.5.

Coastal Water Temperatures

Place Temperature

Stations

Nearby Weather Stations

Station Location Temp. Windchill Dew Point Humidity Wind Precip. Elev Updated Type